createdAt,value
2018-11-14T00:02:25.801Z,6.17
2018-11-14T00:07:28.396Z,5.99
2018-11-14T00:12:45.515Z,6.07
2018-11-14T00:17:48.227Z,5.96
2018-11-14T00:22:50.817Z,6.19
2018-11-14T00:27:52.889Z,6.31
2018-11-14T00:32:54.845Z,6.24
2018-11-14T00:37:56.801Z,5.95
2018-11-14T00:42:59.202Z,5.80
2018-11-14T00:48:01.630Z,5.69
2018-11-14T00:53:03.839Z,5.60
2018-11-14T00:58:05.871Z,5.70
2018-11-14T01:03:07.914Z,5.71
2018-11-14T01:08:09.886Z,5.75
2018-11-14T01:13:12.011Z,5.88
2018-11-14T01:18:14.215Z,5.88
2018-11-14T01:23:16.243Z,5.87
2018-11-14T01:28:18.574Z,5.75
2018-11-14T01:33:20.559Z,6.00
2018-11-14T01:38:22.823Z,5.93
2018-11-14T01:43:25.083Z,6.03
2018-11-14T01:48:27.614Z,5.99
2018-11-14T01:53:29.602Z,5.88
2018-11-14T01:58:31.571Z,5.86
2018-11-14T02:03:33.953Z,5.71
2018-11-14T02:08:35.957Z,5.73
2018-11-14T02:13:37.952Z,5.61
2018-11-14T02:18:40.613Z,5.54
2018-11-14T02:23:42.582Z,5.40
2018-11-14T02:28:44.875Z,5.43
2018-11-14T02:33:46.884Z,5.39
2018-11-14T02:38:48.911Z,5.23
2018-11-14T02:43:50.995Z,5.28
2018-11-14T02:48:53.293Z,5.30
2018-11-14T02:53:55.433Z,5.21
2018-11-14T02:58:57.422Z,5.33
2018-11-14T03:03:59.637Z,5.47
2018-11-14T03:09:01.644Z,5.46
2018-11-14T03:14:03.971Z,5.43
2018-11-14T03:19:06.031Z,5.37
2018-11-14T03:24:08.163Z,5.39
2018-11-14T03:29:10.135Z,5.38
2018-11-14T03:34:12.118Z,5.53
2018-11-14T03:39:14.502Z,5.59
2018-11-14T03:44:16.991Z,5.56
2018-11-14T03:49:19.880Z,5.57
2018-11-14T03:54:21.866Z,5.57
2018-11-14T03:59:23.859Z,5.51
2018-11-14T04:04:26.559Z,5.55
2018-11-14T04:09:28.577Z,5.67
2018-11-14T04:14:30.706Z,5.76
2018-11-14T04:19:33.811Z,5.68
2018-11-14T04:24:35.799Z,5.66
2018-11-14T04:29:37.794Z,5.53
2018-11-14T04:34:40.055Z,5.47
2018-11-14T04:39:42.307Z,5.33
2018-11-14T04:44:44.307Z,5.17
2018-11-14T04:49:46.810Z,5.10
2018-11-14T04:54:48.838Z,5.01
2018-11-14T04:59:50.904Z,4.94
2018-11-14T05:04:52.940Z,4.84
2018-11-14T05:09:55.631Z,4.58
2018-11-14T05:14:57.647Z,4.47
2018-11-14T05:20:00.797Z,4.60
2018-11-14T05:25:03.143Z,4.69
2018-11-14T05:30:07.720Z,4.70
2018-11-14T05:35:10.700Z,4.72
2018-11-14T05:40:14.125Z,4.87
2018-11-14T05:45:25.072Z,4.82
2018-11-14T05:50:27.784Z,4.97
2018-11-14T05:55:29.803Z,4.85
2018-11-14T06:00:31.912Z,5.09
2018-11-14T06:05:33.978Z,5.00
2018-11-14T06:10:36.372Z,4.89
2018-11-14T06:15:38.413Z,4.78
2018-11-14T06:20:40.477Z,4.76
2018-11-14T06:25:42.718Z,4.69
2018-11-14T06:30:44.759Z,5.15
2018-11-14T06:35:46.794Z,4.83
2018-11-14T06:40:48.820Z,4.84
2018-11-14T06:45:50.865Z,4.82
2018-11-14T06:50:52.969Z,4.93
2018-11-14T06:55:55.032Z,5.06
2018-11-14T07:00:57.089Z,5.11
2018-11-14T07:05:59.274Z,5.26
2018-11-14T07:11:01.515Z,5.38
2018-11-14T07:16:03.438Z,5.22
2018-11-14T07:21:05.514Z,5.05
2018-11-14T07:26:07.534Z,4.98
2018-11-14T07:31:09.526Z,5.06
2018-11-14T07:36:11.534Z,5.15
2018-11-14T07:41:15.802Z,5.09
2018-11-14T07:46:18.010Z,5.24
2018-11-14T07:51:20.130Z,5.34
2018-11-14T07:56:22.502Z,5.40
2018-11-14T08:01:24.994Z,5.44
2018-11-14T08:06:27.027Z,5.60
2018-11-14T08:11:29.044Z,5.75
2018-11-14T08:16:31.066Z,5.99
2018-11-14T08:21:33.683Z,6.24
2018-11-14T08:26:36.014Z,6.39
2018-11-14T08:31:37.985Z,6.60
2018-11-14T08:36:40.174Z,6.94
2018-11-14T08:41:42.178Z,7.17
2018-11-14T08:46:44.199Z,7.27
2018-11-14T08:51:46.512Z,7.60
2018-11-14T08:56:48.555Z,7.87
2018-11-14T09:01:50.610Z,8.01
2018-11-14T09:06:52.760Z,8.13
2018-11-14T09:11:55.698Z,8.17
2018-11-14T09:16:57.730Z,8.59
2018-11-14T09:22:00.531Z,8.53
2018-11-14T09:27:02.643Z,8.76
2018-11-14T09:32:04.715Z,8.81
2018-11-14T09:37:06.731Z,9.14
2018-11-14T09:42:08.769Z,9.23
2018-11-14T09:47:11.093Z,9.39
2018-11-14T09:52:13.197Z,9.70
2018-11-14T09:57:15.274Z,10.26
2018-11-14T10:02:17.341Z,10.32
2018-11-14T10:07:19.367Z,10.88
2018-11-14T10:12:21.593Z,11.11
2018-11-14T10:17:23.847Z,11.58
2018-11-14T10:22:26.206Z,11.58
2018-11-14T10:27:29.106Z,11.87
2018-11-14T10:32:32.692Z,12.15
2018-11-14T10:37:34.756Z,12.40
2018-11-14T10:42:37.709Z,12.43
2018-11-14T10:47:40.433Z,12.58
2018-11-14T10:52:42.518Z,13.15
2018-11-14T10:57:45.579Z,13.07
2018-11-14T11:02:53.706Z,12.16
2018-11-14T11:08:02.079Z,12.85
2018-11-14T11:13:15.465Z,13.45
2018-11-14T11:18:19.031Z,13.14
2018-11-14T11:23:21.176Z,13.39
2018-11-14T11:28:24.243Z,13.77
2018-11-14T11:33:26.682Z,13.41
2018-11-14T11:38:29.411Z,14.11
2018-11-14T11:43:32.256Z,13.63
2018-11-14T11:48:35.197Z,13.90
2018-11-14T11:53:39.361Z,14.23
2018-11-14T11:58:42.330Z,13.84
2018-11-14T12:03:45.874Z,14.58
2018-11-14T12:08:49.324Z,14.15
2018-11-14T12:13:54.175Z,13.48
2018-11-14T12:18:56.885Z,14.15
2018-11-14T12:23:59.004Z,14.19
2018-11-14T12:29:01.753Z,14.46
2018-11-14T12:34:14.266Z,14.61
2018-11-14T12:39:16.347Z,14.63
2018-11-14T12:44:19.080Z,15.15
2018-11-14T12:49:21.874Z,15.44
2018-11-14T12:54:24.813Z,15.91
2018-11-14T12:59:27.011Z,16.39
2018-11-14T13:04:29.044Z,15.69
2018-11-14T13:09:31.481Z,14.24
2018-11-14T13:14:34.101Z,13.35
2018-11-14T13:19:36.135Z,13.47
2018-11-14T13:24:38.648Z,13.19
2018-11-14T13:29:42.060Z,12.81
2018-11-14T13:34:44.118Z,12.90
2018-11-14T13:39:46.204Z,12.73
2018-11-14T13:44:48.814Z,12.39
2018-11-14T13:49:51.220Z,11.89
2018-11-14T13:54:53.233Z,11.50
2018-11-14T13:59:55.287Z,11.37
2018-11-14T14:04:57.303Z,11.15
2018-11-14T14:09:59.815Z,11.02
2018-11-14T14:15:02.005Z,10.89
2018-11-14T14:20:05.065Z,10.74
2018-11-14T14:25:08.773Z,10.69
2018-11-14T14:30:16.141Z,10.59
2018-11-14T14:35:20.355Z,10.35
2018-11-14T14:40:22.815Z,10.17
2018-11-14T14:45:26.050Z,10.15
2018-11-14T14:50:28.134Z,10.12
2018-11-14T14:55:30.251Z,10.14
2018-11-14T15:00:32.323Z,10.02
2018-11-14T15:05:34.443Z,9.97
2018-11-14T15:10:36.571Z,9.77
2018-11-14T15:15:38.601Z,9.48
2018-11-14T15:20:40.954Z,9.47
2018-11-14T15:25:43.011Z,9.24
2018-11-14T15:30:45.697Z,8.95
2018-11-14T15:35:47.765Z,8.78
2018-11-14T15:40:50.230Z,8.89
2018-11-14T15:45:52.565Z,9.10
2018-11-14T15:50:56.323Z,9.12
2018-11-14T15:55:58.322Z,9.10
2018-11-14T16:01:00.406Z,9.04
2018-11-14T16:06:03.728Z,8.60
2018-11-14T16:11:05.984Z,8.32
2018-11-14T16:16:08.033Z,8.53
2018-11-14T16:21:10.277Z,8.56
2018-11-14T16:26:13.409Z,8.38
2018-11-14T16:31:16.352Z,8.21
2018-11-14T16:36:18.996Z,8.13
2018-11-14T16:41:20.986Z,7.82
2018-11-14T16:46:24.130Z,7.56
2018-11-14T16:51:26.549Z,7.37
2018-11-14T16:56:29.526Z,7.19
2018-11-14T17:01:32.050Z,7.15
2018-11-14T17:06:34.687Z,7.29
2018-11-14T17:11:43.706Z,7.27
2018-11-14T17:16:45.950Z,7.32
2018-11-14T17:21:48.316Z,7.13
2018-11-14T17:26:50.757Z,7.19
2018-11-14T17:31:54.016Z,7.30
2018-11-14T17:36:56.659Z,7.23
2018-11-14T17:41:59.653Z,7.24
2018-11-14T17:47:01.494Z,7.22
2018-11-14T17:52:03.532Z,7.33
2018-11-14T17:57:05.603Z,7.20
2018-11-14T18:02:07.673Z,7.17
2018-11-14T18:07:11.585Z,7.29
2018-11-14T18:12:14.599Z,7.31
2018-11-14T18:17:17.450Z,7.32
2018-11-14T18:22:20.768Z,7.31
2018-11-14T18:27:23.253Z,7.34
2018-11-14T18:32:26.351Z,7.23
2018-11-14T18:37:28.558Z,7.02
2018-11-14T18:42:30.606Z,6.93
2018-11-14T18:47:32.686Z,6.88
2018-11-14T18:52:36.339Z,6.84
2018-11-14T18:57:38.997Z,6.87
2018-11-14T19:02:42.103Z,6.84
2018-11-14T19:07:45.870Z,6.92
2018-11-14T19:12:49.451Z,6.91
2018-11-14T19:17:52.547Z,6.95
2018-11-14T19:22:57.594Z,6.93
2018-11-14T19:28:00.406Z,6.89
2018-11-14T19:33:03.119Z,6.69
2018-11-14T19:38:05.173Z,6.76
2018-11-14T19:43:08.860Z,6.72
2018-11-14T19:48:12.039Z,6.75
2018-11-14T19:53:14.918Z,6.64
2018-11-14T19:58:16.999Z,6.71
2018-11-14T20:03:19.096Z,6.80
2018-11-14T20:08:22.234Z,6.75
2018-11-14T20:13:24.867Z,6.72
2018-11-14T20:18:27.862Z,6.67
2018-11-14T20:23:29.974Z,6.67
2018-11-14T20:28:33.707Z,6.62
2018-11-14T20:33:35.957Z,6.52
2018-11-14T20:38:38.005Z,6.41
2018-11-14T20:43:40.657Z,6.36
2018-11-14T20:48:42.751Z,6.33
2018-11-14T20:53:44.924Z,6.21
2018-11-14T20:58:47.227Z,6.09
2018-11-14T21:03:50.294Z,6.02
2018-11-14T21:08:52.999Z,5.96
2018-11-14T21:13:55.312Z,5.86
2018-11-14T21:18:57.351Z,5.76
2018-11-14T21:23:59.554Z,5.62
2018-11-14T21:29:01.635Z,5.62
2018-11-14T21:34:03.794Z,5.52
2018-11-14T21:39:09.174Z,5.35
2018-11-14T21:44:11.995Z,5.27
2018-11-14T21:49:19.782Z,5.20
2018-11-14T21:54:22.175Z,5.09
2018-11-14T21:59:24.191Z,5.09
2018-11-14T22:04:26.275Z,5.03
2018-11-14T22:09:28.509Z,4.91
2018-11-14T22:14:30.543Z,4.86
2018-11-14T22:19:32.848Z,4.87
2018-11-14T22:24:35.158Z,4.88
2018-11-14T22:29:37.543Z,4.91
2018-11-14T22:34:39.689Z,4.66
2018-11-14T22:39:41.631Z,4.64
2018-11-14T22:44:43.710Z,4.58
2018-11-14T22:49:46.679Z,4.60
2018-11-14T22:54:48.872Z,4.58
2018-11-14T22:59:51.231Z,4.47
2018-11-14T23:04:53.953Z,4.37
2018-11-14T23:09:55.986Z,4.37
2018-11-14T23:14:57.990Z,4.49
2018-11-14T23:20:00.546Z,4.37
2018-11-14T23:25:02.790Z,4.26
2018-11-14T23:30:05.943Z,4.29
2018-11-14T23:35:13.705Z,4.37
2018-11-14T23:40:15.718Z,4.31
2018-11-14T23:45:20.245Z,4.25
2018-11-14T23:50:25.359Z,4.20
2018-11-14T23:55:28.259Z,4.17
